sensor_id;sensor_type;location;lat;lon;timestamp;pressure;altitude;pressure_sealevel;temperature;humidity
50682;BME280;36779;52.168;20.878;2023-02-13T00:01:46;102176.58;;;3.49;75.92
50682;BME280;36779;52.168;20.878;2023-02-13T00:04:15;102175.09;;;3.47;75.87
50682;BME280;36779;52.168;20.878;2023-02-13T00:06:44;102173.56;;;3.46;75.98
50682;BME280;36779;52.168;20.878;2023-02-13T00:09:17;102169.61;;;3.44;75.95
50682;BME280;36779;52.168;20.878;2023-02-13T00:11:45;102171.27;;;3.43;75.95
50682;BME280;36779;52.168;20.878;2023-02-13T00:14:14;102172.27;;;3.44;75.93
50682;BME280;36779;52.168;20.878;2023-02-13T00:16:44;102180.27;;;3.45;76.02
50682;BME280;36779;52.168;20.878;2023-02-13T00:19:13;102185.63;;;3.48;75.90
50682;BME280;36779;52.168;20.878;2023-02-13T00:21:41;102185.52;;;3.46;75.86
50682;BME280;36779;52.168;20.878;2023-02-13T00:24:12;102180.17;;;3.47;75.98
50682;BME280;36779;52.168;20.878;2023-02-13T00:26:40;102174.77;;;3.50;76.11
50682;BME280;36779;52.168;20.878;2023-02-13T00:29:09;102172.15;;;3.54;76.15
50682;BME280;36779;52.168;20.878;2023-02-13T00:31:38;102171.63;;;3.58;76.10
50682;BME280;36779;52.168;20.878;2023-02-13T00:34:08;102169.24;;;3.60;76.12
50682;BME280;36779;52.168;20.878;2023-02-13T00:36:37;102167.44;;;3.61;76.09
50682;BME280;36779;52.168;20.878;2023-02-13T00:39:06;102161.59;;;3.62;76.06
50682;BME280;36779;52.168;20.878;2023-02-13T00:41:35;102158.29;;;3.61;76.15
50682;BME280;36779;52.168;20.878;2023-02-13T00:44:04;102158.23;;;3.59;76.14
50682;BME280;36779;52.168;20.878;2023-02-13T00:46:33;102166.59;;;3.57;76.16
50682;BME280;36779;52.168;20.878;2023-02-13T00:49:02;102169.04;;;3.57;76.07
50682;BME280;36779;52.168;20.878;2023-02-13T00:51:35;102173.10;;;3.56;76.06
50682;BME280;36779;52.168;20.878;2023-02-13T00:54:04;102172.52;;;3.53;76.12
50682;BME280;36779;52.168;20.878;2023-02-13T00:56:33;102172.25;;;3.56;76.17
50682;BME280;36779;52.168;20.878;2023-02-13T00:59:02;102173.00;;;3.58;76.20
50682;BME280;36779;52.168;20.878;2023-02-13T01:01:31;102172.23;;;3.60;76.19
50682;BME280;36779;52.168;20.878;2023-02-13T01:04:00;102171.39;;;3.62;76.33
50682;BME280;36779;52.168;20.878;2023-02-13T01:06:30;102173.06;;;3.65;76.25
50682;BME280;36779;52.168;20.878;2023-02-13T01:09:02;102165.14;;;3.65;76.29
50682;BME280;36779;52.168;20.878;2023-02-13T01:11:33;102164.24;;;3.65;76.35
50682;BME280;36779;52.168;20.878;2023-02-13T01:14:02;102160.76;;;3.64;76.34
50682;BME280;36779;52.168;20.878;2023-02-13T01:16:31;102159.14;;;3.61;76.37
50682;BME280;36779;52.168;20.878;2023-02-13T01:19:01;102155.77;;;3.58;76.35
50682;BME280;36779;52.168;20.878;2023-02-13T01:21:32;102156.66;;;3.58;76.31
50682;BME280;36779;52.168;20.878;2023-02-13T01:24:04;102156.78;;;3.59;76.37
50682;BME280;36779;52.168;20.878;2023-02-13T01:26:35;102162.41;;;3.59;76.32
50682;BME280;36779;52.168;20.878;2023-02-13T01:29:04;102156.06;;;3.60;76.27
50682;BME280;36779;52.168;20.878;2023-02-13T01:31:33;102158.79;;;3.61;76.31
50682;BME280;36779;52.168;20.878;2023-02-13T01:34:02;102157.79;;;3.64;76.43
50682;BME280;36779;52.168;20.878;2023-02-13T01:36:31;102151.90;;;3.66;76.41
50682;BME280;36779;52.168;20.878;2023-02-13T01:39:00;102152.28;;;3.68;76.46
50682;BME280;36779;52.168;20.878;2023-02-13T01:41:29;102147.83;;;3.69;76.51
50682;BME280;36779;52.168;20.878;2023-02-13T01:43:59;102148.95;;;3.68;76.46
50682;BME280;36779;52.168;20.878;2023-02-13T01:46:32;102148.11;;;3.68;76.55
50682;BME280;36779;52.168;20.878;2023-02-13T01:49:09;102145.69;;;3.67;76.53
50682;BME280;36779;52.168;20.878;2023-02-13T01:51:40;102147.88;;;3.65;76.49
50682;BME280;36779;52.168;20.878;2023-02-13T01:54:18;102151.19;;;3.62;76.54
50682;BME280;36779;52.168;20.878;2023-02-13T01:56:52;102152.33;;;3.61;76.46
50682;BME280;36779;52.168;20.878;2023-02-13T01:59:28;102151.55;;;3.58;76.41
50682;BME280;36779;52.168;20.878;2023-02-13T02:01:59;102148.69;;;3.59;76.42
50682;BME280;36779;52.168;20.878;2023-02-13T02:04:34;102153.34;;;3.61;76.57
50682;BME280;36779;52.168;20.878;2023-02-13T02:07:16;102154.19;;;3.62;76.43
50682;BME280;36779;52.168;20.878;2023-02-13T02:09:48;102153.79;;;3.63;76.46
50682;BME280;36779;52.168;20.878;2023-02-13T02:12:22;102152.41;;;3.62;76.35
50682;BME280;36779;52.168;20.878;2023-02-13T02:15:02;102155.09;;;3.65;76.52
50682;BME280;36779;52.168;20.878;2023-02-13T02:17:33;102155.23;;;3.66;76.49
50682;BME280;36779;52.168;20.878;2023-02-13T02:20:14;102156.38;;;3.67;76.60
50682;BME280;36779;52.168;20.878;2023-02-13T02:23:28;102153.93;;;3.67;76.59
50682;BME280;36779;52.168;20.878;2023-02-13T02:26:38;102159.90;;;3.64;76.62
50682;BME280;36779;52.168;20.878;2023-02-13T02:29:30;102155.88;;;3.63;76.68
50682;BME280;36779;52.168;20.878;2023-02-13T02:32:21;102156.96;;;3.63;76.52
50682;BME280;36779;52.168;20.878;2023-02-13T02:35:03;102149.92;;;3.63;76.53
50682;BME280;36779;52.168;20.878;2023-02-13T02:37:55;102147.08;;;3.64;76.62
50682;BME280;36779;52.168;20.878;2023-02-13T02:40:33;102145.99;;;3.64;76.56
50682;BME280;36779;52.168;20.878;2023-02-13T02:43:15;102142.35;;;3.67;76.64
50682;BME280;36779;52.168;20.878;2023-02-13T02:45:57;102148.66;;;3.71;76.62
50682;BME280;36779;52.168;20.878;2023-02-13T02:48:32;102150.77;;;3.74;76.72
50682;BME280;36779;52.168;20.878;2023-02-13T02:51:35;102156.23;;;3.77;76.86
50682;BME280;36779;52.168;20.878;2023-02-13T02:54:12;102160.41;;;3.75;76.72
50682;BME280;36779;52.168;20.878;2023-02-13T02:57:08;102160.50;;;3.73;76.68
50682;BME280;36779;52.168;20.878;2023-02-13T02:59:40;102159.77;;;3.70;76.66
50682;BME280;36779;52.168;20.878;2023-02-13T03:02:29;102161.70;;;3.66;76.68
50682;BME280;36779;52.168;20.878;2023-02-13T03:05:23;102164.66;;;3.67;76.69
50682;BME280;36779;52.168;20.878;2023-02-13T03:08:14;102167.10;;;3.68;76.73
50682;BME280;36779;52.168;20.878;2023-02-13T03:11:03;102166.65;;;3.69;76.67
50682;BME280;36779;52.168;20.878;2023-02-13T03:14:08;102166.50;;;3.69;76.66
50682;BME280;36779;52.168;20.878;2023-02-13T03:16:39;102165.45;;;3.69;76.72
50682;BME280;36779;52.168;20.878;2023-02-13T03:19:37;102169.27;;;3.70;76.68
50682;BME280;36779;52.168;20.878;2023-02-13T03:22:35;102168.73;;;3.70;76.64
50682;BME280;36779;52.168;20.878;2023-02-13T03:25:12;102165.99;;;3.72;76.85
50682;BME280;36779;52.168;20.878;2023-02-13T03:27:52;102164.60;;;3.72;76.88
50682;BME280;36779;52.168;20.878;2023-02-13T03:30:54;102164.02;;;3.70;76.72
50682;BME280;36779;52.168;20.878;2023-02-13T03:33:50;102161.67;;;3.67;76.72
50682;BME280;36779;52.168;20.878;2023-02-13T03:36:30;102156.27;;;3.63;76.69
50682;BME280;36779;52.168;20.878;2023-02-13T03:39:23;102152.36;;;3.63;76.80
50682;BME280;36779;52.168;20.878;2023-02-13T03:41:59;102156.16;;;3.65;76.76
50682;BME280;36779;52.168;20.878;2023-02-13T03:44:33;102156.79;;;3.66;76.83
50682;BME280;36779;52.168;20.878;2023-02-13T03:47:05;102160.55;;;3.69;76.78
50682;BME280;36779;52.168;20.878;2023-02-13T03:49:40;102159.47;;;3.69;76.72
50682;BME280;36779;52.168;20.878;2023-02-13T03:52:33;102158.63;;;3.68;76.74
50682;BME280;36779;52.168;20.878;2023-02-13T03:55:09;102157.05;;;3.68;76.58
50682;BME280;36779;52.168;20.878;2023-02-13T03:58:01;102157.25;;;3.67;76.80
50682;BME280;36779;52.168;20.878;2023-02-13T04:00:52;102153.23;;;3.71;76.92
50682;BME280;36779;52.168;20.878;2023-02-13T04:03:30;102149.13;;;3.72;76.93
50682;BME280;36779;52.168;20.878;2023-02-13T04:06:05;102147.44;;;3.71;76.90
50682;BME280;36779;52.168;20.878;2023-02-13T04:08:36;102151.17;;;3.70;76.94
50682;BME280;36779;52.168;20.878;2023-02-13T04:11:11;102150.16;;;3.69;76.82
50682;BME280;36779;52.168;20.878;2023-02-13T04:13:48;102152.56;;;3.66;76.87
50682;BME280;36779;52.168;20.878;2023-02-13T04:16:23;102154.89;;;3.65;76.97
50682;BME280;36779;52.168;20.878;2023-02-13T04:18:56;102151.26;;;3.68;76.97
50682;BME280;36779;52.168;20.878;2023-02-13T04:21:25;102154.80;;;3.71;77.01
50682;BME280;36779;52.168;20.878;2023-02-13T04:23:56;102150.80;;;3.74;76.99
50682;BME280;36779;52.168;20.878;2023-02-13T04:26:31;102153.36;;;3.75;76.87
50682;BME280;36779;52.168;20.878;2023-02-13T04:29:01;102150.93;;;3.78;76.96
50682;BME280;36779;52.168;20.878;2023-02-13T04:31:30;102153.77;;;3.82;77.00
50682;BME280;36779;52.168;20.878;2023-02-13T04:33:59;102154.10;;;3.82;77.06
50682;BME280;36779;52.168;20.878;2023-02-13T04:36:31;102153.04;;;3.82;77.14
50682;BME280;36779;52.168;20.878;2023-02-13T04:39:00;102152.17;;;3.82;77.07
50682;BME280;36779;52.168;20.878;2023-02-13T04:41:28;102147.58;;;3.78;77.01
50682;BME280;36779;52.168;20.878;2023-02-13T04:44:00;102151.42;;;3.79;77.05
50682;BME280;36779;52.168;20.878;2023-02-13T04:46:29;102149.98;;;3.79;77.04
50682;BME280;36779;52.168;20.878;2023-02-13T04:49:01;102151.73;;;3.80;77.02
50682;BME280;36779;52.168;20.878;2023-02-13T04:51:30;102149.30;;;3.79;76.99
50682;BME280;36779;52.168;20.878;2023-02-13T04:53:59;102148.14;;;3.82;77.01
50682;BME280;36779;52.168;20.878;2023-02-13T04:56:27;102147.37;;;3.83;77.00
50682;BME280;36779;52.168;20.878;2023-02-13T04:58:57;102147.89;;;3.83;76.93
50682;BME280;36779;52.168;20.878;2023-02-13T05:01:26;102151.30;;;3.82;77.03
50682;BME280;36779;52.168;20.878;2023-02-13T05:03:55;102152.84;;;3.82;76.94
50682;BME280;36779;52.168;20.878;2023-02-13T05:06:24;102147.24;;;3.82;77.13
50682;BME280;36779;52.168;20.878;2023-02-13T05:08:56;102144.27;;;3.82;77.09
50682;BME280;36779;52.168;20.878;2023-02-13T05:11:25;102143.08;;;3.81;77.08
50682;BME280;36779;52.168;20.878;2023-02-13T05:13:54;102138.14;;;3.81;77.18
50682;BME280;36779;52.168;20.878;2023-02-13T05:16:23;102138.88;;;3.80;77.05
50682;BME280;36779;52.168;20.878;2023-02-13T05:18:52;102141.30;;;3.81;77.15
50682;BME280;36779;52.168;20.878;2023-02-13T05:21:22;102141.36;;;3.83;77.11
50682;BME280;36779;52.168;20.878;2023-02-13T05:24:10;102146.34;;;3.82;77.10
50682;BME280;36779;52.168;20.878;2023-02-13T05:26:41;102150.25;;;3.85;77.15
50682;BME280;36779;52.168;20.878;2023-02-13T05:29:14;102153.14;;;3.87;77.06
50682;BME280;36779;52.168;20.878;2023-02-13T05:31:46;102155.01;;;3.88;77.09
50682;BME280;36779;52.168;20.878;2023-02-13T05:34:16;102148.27;;;3.90;77.13
50682;BME280;36779;52.168;20.878;2023-02-13T05:36:46;102154.13;;;3.92;77.13
50682;BME280;36779;52.168;20.878;2023-02-13T05:39:15;102152.19;;;3.92;77.23
50682;BME280;36779;52.168;20.878;2023-02-13T05:41:49;102152.73;;;3.92;77.24
50682;BME280;36779;52.168;20.878;2023-02-13T05:44:17;102155.39;;;3.91;77.21
50682;BME280;36779;52.168;20.878;2023-02-13T05:46:47;102154.79;;;3.89;77.23
50682;BME280;36779;52.168;20.878;2023-02-13T05:49:17;102162.70;;;3.86;77.10
50682;BME280;36779;52.168;20.878;2023-02-13T05:51:46;102163.91;;;3.82;77.03
50682;BME280;36779;52.168;20.878;2023-02-13T05:54:15;102166.10;;;3.81;76.97
50682;BME280;36779;52.168;20.878;2023-02-13T05:56:46;102170.36;;;3.80;77.04
50682;BME280;36779;52.168;20.878;2023-02-13T05:59:18;102169.61;;;3.81;77.09
50682;BME280;36779;52.168;20.878;2023-02-13T06:01:47;102178.94;;;3.84;77.11
50682;BME280;36779;52.168;20.878;2023-02-13T06:04:16;102175.05;;;3.89;77.11
50682;BME280;36779;52.168;20.878;2023-02-13T06:06:46;102177.06;;;3.91;77.30
50682;BME280;36779;52.168;20.878;2023-02-13T06:09:17;102177.33;;;3.92;77.35
50682;BME280;36779;52.168;20.878;2023-02-13T06:11:45;102181.13;;;3.90;77.21
50682;BME280;36779;52.168;20.878;2023-02-13T06:14:14;102178.84;;;3.86;77.16
50682;BME280;36779;52.168;20.878;2023-02-13T06:16:47;102174.17;;;3.85;77.30
50682;BME280;36779;52.168;20.878;2023-02-13T06:19:15;102176.50;;;3.87;77.32
50682;BME280;36779;52.168;20.878;2023-02-13T06:21:45;102172.86;;;3.90;77.30
50682;BME280;36779;52.168;20.878;2023-02-13T06:24:14;102172.30;;;3.90;77.24
50682;BME280;36779;52.168;20.878;2023-02-13T06:26:44;102168.15;;;3.93;77.30
50682;BME280;36779;52.168;20.878;2023-02-13T06:29:13;102164.60;;;3.97;77.47
50682;BME280;36779;52.168;20.878;2023-02-13T06:31:41;102162.34;;;4.00;77.37
50682;BME280;36779;52.168;20.878;2023-02-13T06:34:11;102167.13;;;3.99;77.41
50682;BME280;36779;52.168;20.878;2023-02-13T06:36:40;102178.56;;;3.99;77.40
50682;BME280;36779;52.168;20.878;2023-02-13T06:39:12;102173.73;;;3.97;77.52
50682;BME280;36779;52.168;20.878;2023-02-13T06:41:40;102176.64;;;3.96;77.30
50682;BME280;36779;52.168;20.878;2023-02-13T06:44:12;102179.05;;;3.93;77.40
50682;BME280;36779;52.168;20.878;2023-02-13T06:46:41;102179.94;;;3.93;77.37
50682;BME280;36779;52.168;20.878;2023-02-13T06:49:11;102178.02;;;3.93;77.33
50682;BME280;36779;52.168;20.878;2023-02-13T06:51:39;102185.17;;;3.93;77.35
50682;BME280;36779;52.168;20.878;2023-02-13T06:54:08;102184.64;;;3.94;77.13
50682;BME280;36779;52.168;20.878;2023-02-13T06:56:36;102188.70;;;3.94;77.27
50682;BME280;36779;52.168;20.878;2023-02-13T06:59:05;102187.80;;;3.97;77.30
50682;BME280;36779;52.168;20.878;2023-02-13T07:01:35;102193.43;;;4.01;77.33
50682;BME280;36779;52.168;20.878;2023-02-13T07:04:04;102195.55;;;4.05;77.43
50682;BME280;36779;52.168;20.878;2023-02-13T07:06:32;102195.58;;;4.08;77.40
50682;BME280;36779;52.168;20.878;2023-02-13T07:09:02;102198.95;;;4.10;77.40
50682;BME280;36779;52.168;20.878;2023-02-13T07:11:31;102197.08;;;4.13;77.46
50682;BME280;36779;52.168;20.878;2023-02-13T07:14:00;102189.15;;;4.16;77.55
50682;BME280;36779;52.168;20.878;2023-02-13T07:16:29;102178.05;;;4.20;77.51
50682;BME280;36779;52.168;20.878;2023-02-13T07:18:57;102176.61;;;4.24;77.40
50682;BME280;36779;52.168;20.878;2023-02-13T07:21:26;102172.36;;;4.28;77.44
50682;BME280;36779;52.168;20.878;2023-02-13T07:23:55;102181.00;;;4.35;77.48
50682;BME280;36779;52.168;20.878;2023-02-13T07:26:24;102175.35;;;4.42;77.44
50682;BME280;36779;52.168;20.878;2023-02-13T07:28:53;102179.09;;;4.44;77.31
50682;BME280;36779;52.168;20.878;2023-02-13T07:31:36;102184.89;;;4.48;77.31
50682;BME280;36779;52.168;20.878;2023-02-13T07:34:06;102178.98;;;4.60;77.56
50682;BME280;36779;52.168;20.878;2023-02-13T07:36:35;102176.55;;;4.73;77.72
50682;BME280;36779;52.168;20.878;2023-02-13T07:39:04;102175.30;;;4.83;77.66
50682;BME280;36779;52.168;20.878;2023-02-13T07:41:33;102177.01;;;4.88;77.53
50682;BME280;36779;52.168;20.878;2023-02-13T07:44:02;102179.96;;;4.92;77.43
50682;BME280;36779;52.168;20.878;2023-02-13T07:46:30;102181.70;;;4.95;77.48
50682;BME280;36779;52.168;20.878;2023-02-13T07:49:02;102185.98;;;5.01;77.40
50682;BME280;36779;52.168;20.878;2023-02-13T07:51:31;102183.98;;;5.05;77.45
50682;BME280;36779;52.168;20.878;2023-02-13T07:54:01;102180.98;;;5.06;77.35
50682;BME280;36779;52.168;20.878;2023-02-13T07:56:29;102180.30;;;5.05;77.28
50682;BME280;36779;52.168;20.878;2023-02-13T07:58:58;102174.38;;;5.07;77.43
50682;BME280;36779;52.168;20.878;2023-02-13T08:01:27;102173.23;;;5.12;77.43
50682;BME280;36779;52.168;20.878;2023-02-13T08:03:55;102177.09;;;5.12;77.44
50682;BME280;36779;52.168;20.878;2023-02-13T08:06:24;102174.88;;;5.14;77.40
50682;BME280;36779;52.168;20.878;2023-02-13T08:08:53;102176.10;;;5.15;77.28
50682;BME280;36779;52.168;20.878;2023-02-13T08:11:36;102177.58;;;5.10;77.19
50682;BME280;36779;52.168;20.878;2023-02-13T08:14:22;102174.05;;;5.07;77.27
50682;BME280;36779;52.168;20.878;2023-02-13T08:16:52;102170.88;;;5.07;77.33
50682;BME280;36779;52.168;20.878;2023-02-13T08:19:21;102166.56;;;5.08;77.30
50682;BME280;36779;52.168;20.878;2023-02-13T08:21:49;102166.72;;;5.09;77.39
50682;BME280;36779;52.168;20.878;2023-02-13T08:24:18;102166.49;;;5.09;77.43
50682;BME280;36779;52.168;20.878;2023-02-13T08:26:47;102163.48;;;5.10;77.42
50682;BME280;36779;52.168;20.878;2023-02-13T08:29:16;102161.10;;;5.12;77.46
50682;BME280;36779;52.168;20.878;2023-02-13T08:31:47;102156.80;;;5.16;77.60
50682;BME280;36779;52.168;20.878;2023-02-13T08:34:16;102154.66;;;5.29;77.69
50682;BME280;36779;52.168;20.878;2023-02-13T08:36:45;102156.37;;;5.43;77.70
50682;BME280;36779;52.168;20.878;2023-02-13T08:39:14;102152.80;;;5.56;77.69
50682;BME280;36779;52.168;20.878;2023-02-13T08:41:44;102153.20;;;5.68;77.70
50682;BME280;36779;52.168;20.878;2023-02-13T08:44:13;102157.42;;;5.83;77.91
50682;BME280;36779;52.168;20.878;2023-02-13T08:46:42;102155.96;;;5.94;77.79
50682;BME280;36779;52.168;20.878;2023-02-13T08:49:12;102161.23;;;5.98;77.56
50682;BME280;36779;52.168;20.878;2023-02-13T08:51:41;102159.08;;;6.01;77.50
50682;BME280;36779;52.168;20.878;2023-02-13T08:54:11;102157.08;;;6.11;77.58
50682;BME280;36779;52.168;20.878;2023-02-13T08:56:40;102153.50;;;6.21;77.46
50682;BME280;36779;52.168;20.878;2023-02-13T08:59:11;102148.32;;;6.22;77.33
50682;BME280;36779;52.168;20.878;2023-02-13T09:01:42;102145.49;;;6.25;77.40
50682;BME280;36779;52.168;20.878;2023-02-13T09:04:12;102143.69;;;6.26;77.28
50682;BME280;36779;52.168;20.878;2023-02-13T09:06:46;102139.21;;;6.18;77.16
50682;BME280;36779;52.168;20.878;2023-02-13T09:09:15;102140.20;;;6.07;77.07
50682;BME280;36779;52.168;20.878;2023-02-13T09:11:46;102145.90;;;5.91;76.74
50682;BME280;36779;52.168;20.878;2023-02-13T09:14:18;102147.08;;;5.76;76.83
50682;BME280;36779;52.168;20.878;2023-02-13T09:16:48;102147.98;;;5.70;77.02
50682;BME280;36779;52.168;20.878;2023-02-13T09:19:18;102147.95;;;5.64;76.91
50682;BME280;36779;52.168;20.878;2023-02-13T09:21:47;102145.53;;;5.57;76.96
50682;BME280;36779;52.168;20.878;2023-02-13T09:24:19;102144.73;;;5.53;77.06
50682;BME280;36779;52.168;20.878;2023-02-13T09:26:48;102150.35;;;5.47;76.95
50682;BME280;36779;52.168;20.878;2023-02-13T09:29:17;102152.83;;;5.40;77.11
50682;BME280;36779;52.168;20.878;2023-02-13T09:31:46;102154.76;;;5.37;77.13
50682;BME280;36779;52.168;20.878;2023-02-13T09:34:15;102156.58;;;5.36;77.14
50682;BME280;36779;52.168;20.878;2023-02-13T09:36:52;102157.84;;;5.36;77.20
50682;BME280;36779;52.168;20.878;2023-02-13T09:39:21;102156.26;;;5.36;77.29
50682;BME280;36779;52.168;20.878;2023-02-13T09:41:51;102151.94;;;5.37;77.19
50682;BME280;36779;52.168;20.878;2023-02-13T09:44:26;102148.39;;;5.34;77.15
50682;BME280;36779;52.168;20.878;2023-02-13T09:47:10;102143.02;;;5.33;77.25
50682;BME280;36779;52.168;20.878;2023-02-13T09:49:46;102143.70;;;5.33;77.31
50682;BME280;36779;52.168;20.878;2023-02-13T09:52:16;102141.52;;;5.34;77.39
50682;BME280;36779;52.168;20.878;2023-02-13T09:54:47;102144.60;;;5.36;77.42
50682;BME280;36779;52.168;20.878;2023-02-13T09:57:26;102142.71;;;5.41;77.41
50682;BME280;36779;52.168;20.878;2023-02-13T10:02:46;102146.88;;;5.46;77.32
50682;BME280;36779;52.168;20.878;2023-02-13T10:05:27;102145.13;;;5.49;77.25
50682;BME280;36779;52.168;20.878;2023-02-13T10:08:05;102144.30;;;5.45;77.14
50682;BME280;36779;52.168;20.878;2023-02-13T10:10:49;102145.37;;;5.38;76.99
50682;BME280;36779;52.168;20.878;2023-02-13T10:13:29;102151.10;;;5.33;77.15
50682;BME280;36779;52.168;20.878;2023-02-13T10:16:08;102159.80;;;5.35;77.29
50682;BME280;36779;52.168;20.878;2023-02-13T10:18:49;102167.08;;;5.41;77.42
50682;BME280;36779;52.168;20.878;2023-02-13T10:21:23;102166.37;;;5.51;77.44
50682;BME280;36779;52.168;20.878;2023-02-13T10:23:57;102167.35;;;5.61;77.56
50682;BME280;36779;52.168;20.878;2023-02-13T10:26:31;102164.52;;;5.71;77.57
50682;BME280;36779;52.168;20.878;2023-02-13T10:29:16;102163.48;;;5.76;77.39
50682;BME280;36779;52.168;20.878;2023-02-13T10:32:09;102162.84;;;5.81;77.41
50682;BME280;36779;52.168;20.878;2023-02-13T10:34:47;102160.67;;;5.85;77.27
50682;BME280;36779;52.168;20.878;2023-02-13T10:37:19;102154.83;;;5.83;77.28
50682;BME280;36779;52.168;20.878;2023-02-13T10:39:51;102153.45;;;5.82;77.38
50682;BME280;36779;52.168;20.878;2023-02-13T10:42:24;102152.90;;;5.82;77.23
50682;BME280;36779;52.168;20.878;2023-02-13T10:45:13;102145.39;;;5.75;77.10
50682;BME280;36779;52.168;20.878;2023-02-13T10:47:59;102141.08;;;5.70;77.23
50682;BME280;36779;52.168;20.878;2023-02-13T10:50:41;102134.42;;;5.72;77.32
50682;BME280;36779;52.168;20.878;2023-02-13T10:53:16;102136.54;;;5.79;77.42
50682;BME280;36779;52.168;20.878;2023-02-13T10:56:00;102130.63;;;5.83;77.45
50682;BME280;36779;52.168;20.878;2023-02-13T10:58:41;102127.98;;;5.89;77.49
50682;BME280;36779;52.168;20.878;2023-02-13T11:01:18;102124.22;;;5.97;77.66
50682;BME280;36779;52.168;20.878;2023-02-13T11:03:59;102115.92;;;6.06;77.81
50682;BME280;36779;52.168;20.878;2023-02-13T11:06:29;102116.29;;;6.18;77.86
50682;BME280;36779;52.168;20.878;2023-02-13T11:08:59;102119.06;;;6.27;77.59
50682;BME280;36779;52.168;20.878;2023-02-13T11:11:30;102116.71;;;6.31;77.56
50682;BME280;36779;52.168;20.878;2023-02-13T11:14:13;102115.38;;;6.32;77.32
50682;BME280;36779;52.168;20.878;2023-02-13T11:16:49;102116.20;;;6.34;77.37
50682;BME280;36779;52.168;20.878;2023-02-13T11:19:24;102116.63;;;6.32;77.32
50682;BME280;36779;52.168;20.878;2023-02-13T11:21:58;102113.64;;;6.32;77.39
50682;BME280;36779;52.168;20.878;2023-02-13T11:24:29;102112.42;;;6.35;77.52
50682;BME280;36779;52.168;20.878;2023-02-13T11:27:03;102111.11;;;6.39;77.50
50682;BME280;36779;52.168;20.878;2023-02-13T11:29:37;102109.55;;;6.42;77.46
50682;BME280;36779;52.168;20.878;2023-02-13T11:32:22;102114.14;;;6.45;77.46
50682;BME280;36779;52.168;20.878;2023-02-13T11:34:53;102113.10;;;6.47;77.39
50682;BME280;36779;52.168;20.878;2023-02-13T11:37:26;102107.50;;;6.46;77.32
50682;BME280;36779;52.168;20.878;2023-02-13T11:39:57;102100.98;;;6.46;77.45
50682;BME280;36779;52.168;20.878;2023-02-13T11:42:33;102106.58;;;6.50;77.42
50682;BME280;36779;52.168;20.878;2023-02-13T11:45:04;102106.00;;;6.51;77.49
50682;BME280;36779;52.168;20.878;2023-02-13T11:47:40;102106.13;;;6.51;77.56
50682;BME280;36779;52.168;20.878;2023-02-13T11:50:23;102093.10;;;6.53;77.48
50682;BME280;36779;52.168;20.878;2023-02-13T11:52:56;102088.15;;;6.53;77.39
50682;BME280;36779;52.168;20.878;2023-02-13T11:55:30;102089.58;;;6.53;77.35
50682;BME280;36779;52.168;20.878;2023-02-13T11:58:02;102087.14;;;6.50;77.13
50682;BME280;36779;52.168;20.878;2023-02-13T12:00:36;102092.28;;;6.52;77.45
50682;BME280;36779;52.168;20.878;2023-02-13T12:03:27;102088.35;;;6.56;77.32
50682;BME280;36779;52.168;20.878;2023-02-13T12:06:12;102085.11;;;6.54;77.42
50682;BME280;36779;52.168;20.878;2023-02-13T12:08:49;102082.32;;;6.53;77.31
50682;BME280;36779;52.168;20.878;2023-02-13T12:11:26;102075.00;;;6.52;77.28
50682;BME280;36779;52.168;20.878;2023-02-13T12:14:03;102069.83;;;6.53;77.20
50682;BME280;36779;52.168;20.878;2023-02-13T12:16:40;102064.50;;;6.50;77.25
50682;BME280;36779;52.168;20.878;2023-02-13T12:19:17;102063.08;;;6.48;77.17
50682;BME280;36779;52.168;20.878;2023-02-13T12:21:59;102054.00;;;6.40;77.13
50682;BME280;36779;52.168;20.878;2023-02-13T12:24:47;102043.86;;;6.35;77.33
50682;BME280;36779;52.168;20.878;2023-02-13T12:27:27;102044.84;;;6.34;77.32
50682;BME280;36779;52.168;20.878;2023-02-13T12:30:29;102045.96;;;6.27;77.13
50682;BME280;36779;52.168;20.878;2023-02-13T12:33:16;102043.23;;;6.26;77.31
50682;BME280;36779;52.168;20.878;2023-02-13T12:35:56;102044.42;;;6.29;77.35
50682;BME280;36779;52.168;20.878;2023-02-13T12:38:43;102045.87;;;6.31;77.23
50682;BME280;36779;52.168;20.878;2023-02-13T12:41:17;102044.93;;;6.32;77.43
50682;BME280;36779;52.168;20.878;2023-02-13T12:44:23;102055.64;;;6.33;77.30
50682;BME280;36779;52.168;20.878;2023-02-13T12:47:05;102047.74;;;6.39;77.40
50682;BME280;36779;52.168;20.878;2023-02-13T12:52:47;102033.37;;;6.46;77.49
50682;BME280;36779;52.168;20.878;2023-02-13T12:55:31;102033.58;;;6.45;77.52
50682;BME280;36779;52.168;20.878;2023-02-13T12:58:16;102034.45;;;6.45;77.34
50682;BME280;36779;52.168;20.878;2023-02-13T13:00:54;102030.85;;;6.43;77.33
50682;BME280;36779;52.168;20.878;2023-02-13T13:03:45;102020.48;;;6.45;77.19
50682;BME280;36779;52.168;20.878;2023-02-13T13:06:36;102011.02;;;6.44;77.18
50682;BME280;36779;52.168;20.878;2023-02-13T13:09:28;102015.07;;;6.42;77.17
50682;BME280;36779;52.168;20.878;2023-02-13T13:12:34;102012.29;;;6.32;77.11
50682;BME280;36779;52.168;20.878;2023-02-13T13:15:12;101997.85;;;6.23;77.11
50682;BME280;36779;52.168;20.878;2023-02-13T13:17:58;101999.23;;;6.18;77.12
50682;BME280;36779;52.168;20.878;2023-02-13T13:23:39;101997.17;;;6.08;76.98
50682;BME280;36779;52.168;20.878;2023-02-13T13:26:20;101998.67;;;6.01;77.03
50682;BME280;36779;52.168;20.878;2023-02-13T13:28:54;101993.27;;;5.97;77.09
50682;BME280;36779;52.168;20.878;2023-02-13T13:31:26;101991.94;;;5.92;77.05
50682;BME280;36779;52.168;20.878;2023-02-13T13:34:01;101992.41;;;5.87;77.07
50682;BME280;36779;52.168;20.878;2023-02-13T13:36:42;101994.20;;;5.84;77.06
50682;BME280;36779;52.168;20.878;2023-02-13T13:39:33;101995.11;;;5.83;77.11